28 września 2022

Czas Kod Pogoda Temp. Widoczność Sufit Wiatr METAR/SPECI
00:55
V
8 °C 10 km+ 6.600 ft 190° 190° 4 kt METAR EHLW 272255Z AUTO 19004KT 150V210 9999 SCT057 BKN066 BKN076 08/07 Q0995 BLU
00:25
V
8 °C 10 km+ 8.700 ft 190° 190° 4 kt METAR EHLW 272225Z AUTO 19004KT 9999 FEW074 OVC087 08/07 Q0995 BLU

27 września 2022

Czas Kod Pogoda Temp. Widoczność Sufit Wiatr METAR/SPECI
23:55
V
8 °C 10 km+ 9.600 ft 190° 190° 4 kt METAR EHLW 272155Z AUTO 19004KT 9999 SCT056 OVC096 08/06 Q0995 BLU
23:25
V
8 °C 10 km+ 4.500 ft 190° 190° 4 kt METAR EHLW 272125Z AUTO 19004KT 9999 SCT040 BKN045 OVC063 08/07 Q0995 BLU
23:08
V
8 °C 10 km+ 7.200 ft 190° 190° 5 kt METAR EHLW 272108Z AUTO 19005KT 9999 BKN072 OVC080 08/07 Q0995 BLU
23:02
V
8 °C 10 km+ 7.700 ft 190° 190° 5 kt METAR EHLW 272102Z AUTO 19005KT 9999 -DZRA BKN077 OVC082 08/07 Q0995 BLU
22:55
V
8 °C 10 km+ 7.700 ft 190° 190° 5 kt METAR EHLW 272055Z AUTO 19005KT 160V220 9999 BKN077 OVC082 08/07 Q0995 BLU
22:25
V
8 °C 10 km+ 5.000 ft 190° 190° 4 kt METAR EHLW 272025Z AUTO 19004KT 160V220 9999 -DZ OVC050 08/07 Q0995 BLU
21:55
V
8 °C 10 km+ 4.700 ft 190° 190° 4 kt METAR EHLW 271955Z AUTO 19004KT 9999 -DZ OVC047 08/07 Q0995 BLU
21:25
V
8 °C 10 km+ 4.400 ft 200° 200° 4 kt METAR EHLW 271925Z AUTO 20004KT 9999 -DZ OVC044 08/07 Q0995 BLU
20:55
V
8 °C 10 km+ - 220° 220° 3 kt METAR EHLW 271855Z AUTO 22003KT 9999 -DZ FEW042 08/07 Q0995 BLU
20:25
V
8 °C 10 km+ 4.800 ft 220° 220° 2 kt METAR EHLW 271825Z AUTO 22002KT 9999 -DZ FEW015CB SCT044 OVC048 08/07 Q0995 BLU
19:55
V
8 °C 10 km+ 7.200 ft 270° 270° 4 kt METAR EHLW 271755Z AUTO 27004KT 9999 -DZ FEW015CB BKN072 BKN082 08/07 Q0995 BLU
19:25
V
8 °C 10 km+ 4.600 ft 280° 280° 5 kt METAR EHLW 271725Z AUTO 28005KT 9999 FEW015CB OVC046 08/07 Q0995 BLU
19:12
V
9 °C 10 km+ 8.800 ft 280° 280° 6 kt METAR EHLW 271712Z AUTO 28006KT 9999 -DZ FEW015CB BKN088 OVC094 09/07 Q0996 BLU
19:03
V
9 °C 10 km+ 8.900 ft 270° 270° 7 kt METAR EHLW 271703Z AUTO 27007KT 240V300 9999 -DZRA FEW015CB SCT045 OVC089 09/07 Q0996 BLU
18:55
V
9 °C 10 km+ 4.700 ft 270° 270° 7 kt METAR EHLW 271655Z AUTO 27007KT 190V300 9999 SCT015CB SCT042 OVC047 09/07 Q0996 WHT
18:34
V
9 °C 10 km+ 3.600 ft 260° 260° 11 kt METAR EHLW 271634Z AUTO 26011KT 230V320 9999 SCT015CB SCT024 OVC036 09/07 Q0996 WHT
18:25
M
9 °C 10 km+ 1.600 ft 270° 270° 12 - 22 kt METAR EHLW 271625Z AUTO 27012G22KT 250V330 9999 DZRA FEW010 FEW015CB OVC016 09/07 Q0996 WHT
18:02
M
10 °C 10 km+ 2.600 ft 230° 230° 9 kt METAR EHLW 271602Z AUTO 23009KT 190V250 9999 -RA FEW015CB SCT022 OVC026 10/07 Q0996 WHT
17:55
V
10 °C 10 km+ 3.600 ft 230° 230° 12 kt METAR EHLW 271555Z AUTO 23012KT 200V260 9999 -RA FEW015CB SCT027 OVC036 10/07 Q0995 RERA REDZ BLU
17:39
M
11 °C 10 km+ 2.300 ft 230° 230° 10 kt METAR EHLW 271539Z AUTO 23010KT 170V260 9999 +DZ FEW018 BKN023 OVC027 11/08 Q0995 WHT
17:38
M
11 °C 10 km+ 2.800 ft 220° 220° 7 kt METAR EHLW 271538Z AUTO 22007KT 170V260 9999 DZRA SCT025 BKN028 BKN035 11/08 Q0995 BLU
17:25
V
12 °C 10 km+ 3.500 ft 210° 210° 6 kt METAR EHLW 271525Z AUTO 21006KT 170V230 9999 FEW019 BKN035 OVC041 12/08 Q0995 BLU
16:55
V
11 °C 10 km+ 9.900 ft 220° 220° 5 kt METAR EHLW 271455Z AUTO 22005KT 9999 FEW031 SCT053 BKN099 11/07 Q0995 BLU
16:25
V
11 °C 10 km+ 12.000 ft 260° 260° 5 kt METAR EHLW 271425Z AUTO 26005KT 230V300 9999 OVC120 11/08 Q0995 BLU
16:01
V
11 °C 10 km+ 10.000 ft 310° 310° 4 kt METAR EHLW 271401Z AUTO 31004KT 260V330 9999 SCT069 OVC100 11/07 Q0995 BLU
15:55
V
11 °C 10 km+ 9.900 ft 320° 320° 6 kt METAR EHLW 271355Z AUTO 32006KT 270V350 9999 FEW062 BKN099 OVC100 11/07 Q0995 REDZ BLU TEMPO 33012G25KT 4000 SHRA SCT020CB BKN030
15:25
V
10 °C 10 km+ 4.800 ft 300° 300° 12 kt METAR EHLW 271325Z AUTO 30012KT 260V320 9999 FEW015CB SCT037 BKN048 10/08 Q0996 BLU TEMPO 33012G25KT 4000 SHRA SCT020CB BKN030
15:19
V
10 °C 10 km+ 3.000 ft 290° 290° 12 kt METAR EHLW 271319Z AUTO 29012KT 260V320 9999 -DZRA FEW015CB BKN030 BKN038 10/08 Q0996 BLU TEMPO 33012G25KT 4000 SHRA SCT020CB BKN030
14:56
V
10 °C 10 km+ 3.700 ft 270° 270° 11 kt METAR EHLW 271256Z AUTO 27011KT 9999 SHRA FEW015CB BKN037 OVC044 10/08 Q0996 BLU TEMPO 33012G25KT 4000 SHRA SCT020CB BKN030
14:55
V
10 °C 10 km+ 3.700 ft 260° 260° 11 kt METAR EHLW 271255Z AUTO 26011KT 230V290 9999 SHRA FEW015CB SCT019 BKN037 10/08 Q0996 WHT TEMPO 2000 SHRA SCT020CB BKN030
14:48
M
10 °C 10 km+ 1.500 ft 260° 260° 10 kt METAR EHLW 271248Z AUTO 26010KT 200V290 9999 RA BKN015CB BKN019 OVC038 10/08 Q0995 WHT TEMPO 2000 SHRA SCT020CB BKN030
14:47
M
10 °C 10 km+ 1.600 ft 250° 250° 9 kt METAR EHLW 271247Z AUTO 25009KT 200V290 9999 FEW012 FEW015CB BKN016 OVC020 10/07 Q0995 WHT TEMPO 2000 SHRA SCT020CB BKN030
14:37
M
10 °C 10 km+ 2.200 ft 250° 250° 7 kt METAR EHLW 271237Z AUTO 25007KT 210V300 9999 +SHRA FEW014 FEW015CB BKN022 OVC026 10/08 Q0995 WHT TEMPO 2000 SHRA SCT020CB BKN030
14:33
I
11 °C 4,4 km 2.200 ft 280° 280° 6 kt METAR EHLW 271233Z AUTO 28006KT 220V310 4400 RA FEW015CB BKN022 OVC027 11/08 Q0995 GRN TEMPO 2000 SHRA SCT020CB BKN030
14:29
M
11 °C 10 km+ 2.200 ft 290° 290° 6 kt METAR EHLW 271229Z AUTO 29006KT 230V310 9999 -RA FEW015CB BKN022 BKN036 11/08 Q0995 WHT TEMPO 2000 SHRA SCT020CB BKN030
14:25
V
11 °C 10 km+ 4.500 ft 300° 300° 6 kt METAR EHLW 271225Z AUTO 30006KT 250V310 9999 FEW015CB SCT036 BKN045 11/09 Q0995 RERA BLU TEMPO 2000 SHRA SCT020CB BKN030
14:13
V
10 °C 10 km+ 3.600 ft 300° 300° 9 kt METAR EHLW 271213Z AUTO 30009KT 260V330 9999 -SHRA FEW026/// SCT031/// BKN036/// 10/08 Q0995 BLU TEMPO 2000 SHRA SCT020CB BKN030
14:11
M
10 °C 5 km 2.800 ft 300° 300° 14 - 25 kt METAR EHLW 271211Z AUTO 30014G25KT 250V320 5000 +SHRA FEW007 SCT022 BKN028 10/08 Q0995 WHT TEMPO 2000 SHRA SCT020CB BKN030
13:55
V
13 °C 10 km+ 10.000 ft 260° 260° 8 kt METAR EHLW 271155Z AUTO 26008KT 230V290 9999 FEW052 OVC100 13/09 Q0995 BLU TEMPO 4000 SHRA SCT020CB BKN030
13:25
V
11 °C 10 km+ 4.900 ft 300° 300° 10 kt METAR EHLW 271125Z AUTO 30010KT 250V330 9999 -RA FEW018 SCT040 BKN049 11/08 Q0995 RERA REDZ BLU TEMPO 4000 SHRA SCT020CB BKN030
13:14
V
12 °C 10 km+ 6.600 ft 300° 300° 6 kt METAR EHLW 271114Z AUTO 30006KT 260V330 9999 FEW017 SCT042 BKN066 12/09 Q0995 BLU TEMPO 4000 SHRA SCT020CB BKN030
13:09
V
12 °C 10 km+ 3.500 ft 320° 320° 6 kt METAR EHLW 271109Z AUTO 32006KT 260V340 9999 FEW008 FEW015CB SCT022 BKN035 12/09 Q0995 WHT TEMPO 4000 SHRA SCT020CB BKN030
12:58
M
11 °C 10 km+ 2.100 ft 320° 320° 8 kt METAR EHLW 271058Z AUTO 32008KT 270V350 9999 DZRA FEW015CB BKN021 OVC025 11/08 Q0995 WHT TEMPO 4000 SHRA SCT020CB BKN030
12:55
M
12 °C 10 km+ 2.500 ft 320° 320° 7 kt METAR EHLW 271055Z AUTO 32007KT 270V350 9999 FEW015CB SCT021 BKN025 12/09 Q0995 REDZ WHT TEMPO 4000 SHRA SCT020CB BKN030
12:34
M
11 °C 10 km+ 2.800 ft 330° 330° 8 kt METAR EHLW 271034Z AUTO 33008KT 280V360 9999 FEW015CB SCT024 BKN028 OVC032 11/08 Q0995 WHT TEMPO 4000 SHRA SCT020CB BKN030
12:26
V
10 °C 10 km+ 3.000 ft 320° 320° 10 kt METAR EHLW 271026Z AUTO 32010KT 270V340 9999 -RADZ FEW014 SCT027 BKN030 10/08 Q0995 BLU TEMPO 4000 SHRA SCT020CB BKN030
12:25
V
11 °C 10 km+ 3.000 ft 310° 310° 11 kt METAR EHLW 271025Z AUTO 31011KT 270V340 9999 -RA FEW014 SCT023 BKN030 11/08 Q0995 RERA REDZ WHT TEMPO 4000 SHRA SCT020CB BKN030
12:07
V
11 °C 10 km+ 6.000 ft 320° 320° 7 kt METAR EHLW 271007Z AUTO 32007KT 270V360 9999 FEW015CB SCT031 BKN060 11/08 Q0995 BLU TEMPO 4000 SHRA SCT020CB BKN030
11:55
M
11 °C 10 km+ 2.300 ft 300° 300° 10 kt METAR EHLW 270955Z AUTO 30010KT 300V010 9999 -RADZ FEW015CB SCT016 BKN023 OVC026 11/08 Q0995 WHT TEMPO 4000 SHRA SCT020CB BKN030
11:35
M
11 °C 10 km+ 2.800 ft 280° 280° 10 kt METAR EHLW 270935Z AUTO 28010KT 250V320 9999 RA FEW016CB SCT025 BKN028 11/07 Q0995 BLU TEMPO 4000 SHRA SCT020CB BKN030
11:25
V
12 °C 10 km+ 5.500 ft 270° 270° 5 kt METAR EHLW 270925Z AUTO 27005KT 210V310 9999 FEW031 BKN055 OVC063 12/09 Q0995 BLU TEMPO 4000 SHRA SCT020CB BKN030
11:08
V
11 °C 10 km+ 4.600 ft 330° 330° 4 kt METAR EHLW 270908Z AUTO 33004KT 270V360 9999 FEW015CB BKN046 BKN051 11/09 Q0995 BLU TEMPO 4000 SHRA SCT020CB BKN030
10:55
V
10 °C 10 km+ 3.800 ft 310° 310° 6 kt METAR EHLW 270855Z AUTO 31006KT 280V350 9999 -SHRA FEW015CB BKN038 BKN045 10/09 Q0995 BLU TEMPO 4000 SHRA SCT020CB BKN030
10:41
V
11 °C 10 km+ 6.000 ft 300° 300° 12 kt METAR EHLW 270841Z AUTO 30012KT 250V330 9999 -RA FEW015CB SCT043 BKN060 11/08 Q0995 BLU TEMPO 4000 SHRA SCT020CB BKN030
10:37
V
11 °C 10 km+ 7.200 ft 290° 290° 9 kt METAR EHLW 270837Z AUTO 29009KT 250V320 9999 FEW015CB SCT022 BKN072 11/09 Q0995 WHT TEMPO 4000 SHRA SCT020CB BKN030
10:25
V
11 °C 10 km+ 5.000 ft 280° 280° 7 kt METAR EHLW 270825Z AUTO 28007KT 250V310 9999 -RA FEW015CB BKN050 OVC056 11/09 Q0995 RERA REDZ BLU TEMPO 4000 SHRA SCT020CB BKN030
09:55
V
10 °C 10 km+ 3.300 ft 290° 290° 11 kt METAR EHLW 270755Z AUTO 29011KT 260V320 9999 -RA FEW015CB SCT025 BKN033 10/08 Q0995 BLU TEMPO 4000 SHRA SCT020CB BKN030
09:51
M
10 °C 6 km 2.300 ft 290° 290° 12 kt METAR EHLW 270751Z AUTO 29012KT 250V320 6000 -SHRA FEW020 BKN023 BKN027 10/08 Q0995 WHT TEMPO 4000 SHRA SCT020CB BKN030
09:47
M
11 °C 10 km+ 2.600 ft 290° 290° 11 kt METAR EHLW 270747Z AUTO 29011KT 250V320 9999 -RA FEW017 SCT021 BKN026 11/08 Q0995 WHT TEMPO 4000 SHRA SCT020CB BKN030
09:25
V
10 °C 10 km+ 3.300 ft 330° 330° 9 kt METAR EHLW 270725Z AUTO 33009KT 300V010 9999 FEW028 BKN033 BKN037 10/07 Q0995 BLU TEMPO 4000 SHRA SCT020CB BKN030
08:55
V
11 °C 10 km+ 4.700 ft Var Var 4 kt METAR EHLW 270655Z AUTO VRB04KT 9999 SCT041 BKN047 BKN051 11/08 Q0994 BLU TEMPO 4000 SHRA SCT020CB BKN030
08:25
V
10 °C 10 km+ 4.500 ft 280° 280° 4 kt METAR EHLW 270625Z AUTO 28004KT 250V350 9999 FEW015CB SCT026 BKN045 10/08 Q0994 BLU TEMPO 4000 SHRA SCT020CB BKN030
07:55
V
10 °C 10 km+ 5.500 ft 300° 300° 8 kt METAR EHLW 270555Z AUTO 30008KT 260V320 9999 -RA FEW015CB SCT048 BKN055 10/08 Q0994 RERA REDZ BLU TEMPO 4000 SHRA SCT020CB BKN030
07:32
M
9 °C 10 km+ 2.900 ft 300° 300° 4 kt METAR EHLW 270532Z AUTO 30004KT 250V320 9999 FEW015CB SCT024 BKN029 BKN033 09/07 Q0994 WHT TEMPO 4000 SHRA SCT020CB BKN030
07:25
V
9 °C 10 km+ 4.400 ft 300° 300° 5 kt METAR EHLW 270525Z AUTO 30005KT 250V340 9999 FEW015CB SCT032 BKN044 09/07 Q0994 BLU TEMPO 4000 SHRA SCT020CB BKN030
06:55
M
10 °C 10 km+ 2.800 ft 270° 270° 6 kt METAR EHLW 270455Z AUTO 27006KT 240V360 9999 FEW015CB SCT020 BKN028 OVC035 10/08 Q0994 WHT
06:43
V
9 °C 10 km+ 4.400 ft 260° 260° 5 kt METAR EHLW 270443Z AUTO 26005KT 9999 SCT022 SCT028 BKN044 09/08 Q0994 WHT
06:25
V
10 °C 10 km+ 4.400 ft 300° 300° 7 kt METAR EHLW 270425Z AUTO 30007KT 260V350 9999 SCT037 BKN044 BKN054 10/08 Q0994 REDZ BLU
06:21
V
10 °C 10 km+ 4.600 ft 320° 320° 8 kt METAR EHLW 270421Z AUTO 32008KT 260V350 9999 FEW015CB SCT041 BKN046 10/08 Q0994 BLU
06:12
V
10 °C 10 km+ 6.400 ft 310° 310° 7 kt METAR EHLW 270412Z AUTO 31007KT 260V360 9999 DZRA FEW015CB SCT034 BKN064 10/07 Q0994 BLU
05:55
V
10 °C 10 km+ 5.300 ft 320° 320° 7 kt METAR EHLW 270355Z AUTO 32007KT 270V340 9999 DZ FEW015CB SCT043 BKN053 10/07 Q0994 BLU
05:31
M
10 °C 10 km+ 2.800 ft 320° 320° 11 kt METAR EHLW 270331Z AUTO 32011KT 280V360 9999 FEW015CB SCT025 BKN028 10/07 Q0994 BLU
05:25
V
10 °C 10 km+ 5.100 ft 310° 310° 11 kt METAR EHLW 270325Z AUTO 31011KT 270V350 9999 FEW015CB SCT024 BKN051 10/07 Q0994 WHT
04:55
V
10 °C 10 km+ 4.800 ft 320° 320° 10 kt METAR EHLW 270255Z AUTO 32010KT 300V010 9999 -RA FEW015CB SCT042 BKN048 10/07 Q0994 BLU
04:25
V
10 °C 10 km+ 4.700 ft 310° 310° 15 kt METAR EHLW 270225Z AUTO 31015KT 270V350 9999 -SHRA FEW015CB SCT042 BKN047 10/07 Q0994 REDZ BLU
04:10
V
10 °C 10 km+ 4.300 ft 300° 300° 12 kt METAR EHLW 270210Z AUTO 30012KT 270V340 9999 DZRA FEW015CB SCT039 BKN043 OVC048 10/07 Q0994 BLU
03:55
V
10 °C 10 km+ 7.200 ft 300° 300° 11 kt METAR EHLW 270155Z AUTO 30011KT 260V330 9999 -RA FEW015CB SCT054 BKN072 10/08 Q0994 RERA REDZ BLU
03:25
M
10 °C 10 km+ 2.600 ft 320° 320° 10 kt METAR EHLW 270125Z AUTO 32010KT 270V350 9999 -RA FEW015CB BKN026 BKN031 10/08 Q0994 BLU
03:11
V
11 °C 10 km+ 5.100 ft 300° 300° 12 kt METAR EHLW 270111Z AUTO 30012KT 280V340 9999 -RA FEW015CB SCT023 BKN051 11/08 Q0994 WHT
03:04
V
10 °C 10 km+ 4.000 ft 300° 300° 11 kt METAR EHLW 270104Z AUTO 30011KT 250V340 9999 -RA FEW015CB SCT025 BKN040 10/08 Q0994 BLU
02:56
M
11 °C 10 km+ 2.800 ft 290° 290° 9 kt METAR EHLW 270056Z AUTO 29009KT 250V330 9999 FEW015CB SCT024 BKN028 11/08 Q0994 WHT
02:55
V
10 °C 10 km+ 3.700 ft 290° 290° 8 kt METAR EHLW 270055Z AUTO 29008KT 260V330 9999 FEW015CB SCT029 BKN037 10/08 Q0994 REDZ BLU
02:43
V
10 °C 10 km+ 4.500 ft 290° 290° 9 kt METAR EHLW 270043Z AUTO 29009KT 9999 -SHRA FEW015CB SCT040 BKN045 10/08 Q0994 BLU
02:31
V
10 °C 10 km+ 5.300 ft 310° 310° 11 kt METAR EHLW 270031Z AUTO 31011KT 260V340 9999 -RA SCT024/// SCT030/// BKN053/// 10/07 Q0994 WHT
02:25
V
10 °C 10 km+ 5.300 ft 320° 320° 13 kt METAR EHLW 270025Z AUTO 32013KT 280V340 9999 FEW026 SCT042 BKN053 10/07 Q0994 BLU
02:16
V
10 °C 10 km+ 4.100 ft 320° 320° 14 kt METAR EHLW 270016Z AUTO 32014KT 280V360 9999 -RA FEW024 SCT028 BKN041 10/07 Q0994 BLU
02:13
I
11 °C 4 km 5.000 ft 320° 320° 12 kt METAR EHLW 270013Z AUTO 32012KT 290V360 4000 RA FEW024 SCT031 BKN050 11/08 Q0994 GRN
01:55
V
10 °C 10 km+ 15.000 ft 320° 320° 8 kt METAR EHLW 262355Z AUTO 32008KT 290V360 9999 FEW022 SCT040 OVC150 10/08 Q0994 REDZ BLU
01:37
V
10 °C 10 km+ 4.900 ft 310° 310° 6 kt METAR EHLW 262337Z AUTO 31006KT 280V350 9999 FEW015CB SCT026 BKN049 10/08 Q0994 BLU
01:31
V
10 °C 10 km+ 3.700 ft 320° 320° 6 kt METAR EHLW 262331Z AUTO 32006KT 280V020 9999 DZRA FEW015CB SCT033 BKN037 10/08 Q0994 BLU
01:25
V
10 °C 10 km+ 3.300 ft 330° 330° 6 kt METAR EHLW 262325Z AUTO 33006KT 290V020 9999 -RA FEW015CB BKN033 BKN039 10/09 Q0994 RERA REDZ BLU
01:18
V
10 °C 10 km+ 5.500 ft 330° 330° 7 kt METAR EHLW 262318Z AUTO 33007KT 310V020 9999 DZRA FEW015CB SCT043 OVC055 10/09 Q0994 BLU
01:12
V
10 °C 10 km+ 5.600 ft 330° 330° 9 kt METAR EHLW 262312Z AUTO 33009KT 290V360 9999 -RADZ FEW015CB SCT046 OVC056 10/09 Q0994 BLU
01:01
V
10 °C 10 km+ 4.300 ft 330° 330° 13 kt METAR EHLW 262301Z AUTO 33013KT 300V360 9999 -SHRA FEW015CB SCT039 BKN043 10/09 Q0994 BLU
00:55
V
10 °C 10 km+ 3.600 ft 330° 330° 14 kt METAR EHLW 262255Z AUTO 33014KT 280V360 9999 -SHRA +DZ FEW015CB SCT021 BKN036 10/08 Q0994 WHT
00:25
V
10 °C 10 km+ 4.700 ft 330° 330° 8 kt METAR EHLW 262225Z AUTO 33008KT 300V010 9999 -RA FEW015CB SCT035 BKN047 10/08 Q0994 BLU
00:10
V
11 °C 10 km+ 4.500 ft 320° 320° 9 kt METAR EHLW 262210Z AUTO 32009KT 280V010 9999 FEW018 SCT022 BKN045 11/08 Q0994 WHT
00:01
V
11 °C 10 km+ 6.500 ft 310° 310° 8 kt METAR EHLW 262201Z AUTO 31008KT 290V360 9999 -DZ FEW019 SCT057 BKN065 11/08 Q0994 BLU

26 września 2022

Czas Kod Pogoda Temp. Widoczność Sufit Wiatr METAR/SPECI
23:55
V
11 °C 10 km+ 5.600 ft 310° 310° 7 kt METAR EHLW 262155Z AUTO 31007KT 270V340 9999 -DZ FEW018 SCT023 BKN056 11/08 Q0994 WHT
23:25
V
10 °C 10 km+ 4.900 ft 310° 310° 15 kt METAR EHLW 262125Z AUTO 31015KT 280V360 9999 -RADZ FEW015CB SCT043 OVC049 10/08 Q0994 RERA REDZ BLU
22:55
V
11 °C 10 km+ 4.800 ft 300° 300° 10 kt METAR EHLW 262055Z AUTO 30010KT 260V330 9999 FEW015CB BKN048 OVC053 11/08 Q0994 BLU
22:25
V
12 °C 10 km+ 7.700 ft 300° 300° 12 kt METAR EHLW 262025Z AUTO 30012KT 270V330 9999 FEW049 SCT055 BKN077 12/08 Q0994 BLU
21:55
V
11 °C 10 km+ 9.400 ft 290° 290° 5 kt METAR EHLW 261955Z AUTO 29005KT 240V330 9999 OVC094 11/09 Q0994 BLU
21:25
V
11 °C 10 km+ 7.600 ft 320° 320° 4 kt METAR EHLW 261925Z AUTO 32004KT 9999 FEW015CB SCT068 BKN076 11/09 Q0994 REDZ BLU
21:12
V
11 °C 10 km+ 4.800 ft 340° 340° 7 kt METAR EHLW 261912Z AUTO 34007KT 9999 FEW015CB SCT044 OVC048 11/09 Q0994 BLU
21:03
V
11 °C 10 km+ 4.700 ft 330° 330° 9 kt METAR EHLW 261903Z AUTO 33009KT 290V030 9999 DZRA FEW015CB BKN047 OVC052 11/09 Q0994 BLU
20:56
V
11 °C 10 km+ 4.000 ft 320° 320° 10 kt METAR EHLW 261856Z AUTO 32010KT 280V360 9999 -RADZ FEW015CB SCT033 BKN040 11/09 Q0994 BLU
20:55
V
11 °C 10 km+ 3.200 ft 320° 320° 10 kt METAR EHLW 261855Z AUTO 32010KT 280V350 9999 FEW015CB SCT024 BKN032 11/09 Q0994 WHT
20:25
M
11 °C 10 km+ 2.500 ft 310° 310° 10 kt METAR EHLW 261825Z AUTO 31010KT 240V350 9999 -SHRA FEW015CB BKN025 BKN031 11/10 Q0994 RERA REDZ BLU
20:17
I
11 °C 3,8 km 3.300 ft 280° 280° 8 kt METAR EHLW 261817Z AUTO 28008KT 240V310 3800 +SHRA SCT015CB SCT019 BKN033 11/10 Q0994 GRN
20:13
V
11 °C 10 km+ 6.200 ft 270° 270° 5 kt METAR EHLW 261813Z AUTO 27005KT 9999 -RA FEW015CB SCT034 OVC062 11/10 Q0994 BLU
20:04
V
11 °C 10 km+ 5.000 ft 280° 280° 5 kt METAR EHLW 261804Z AUTO 28005KT 250V340 9999 DZRA FEW015CB SCT039 BKN050 11/10 Q0994 BLU
19:55
V
11 °C 10 km+ 9.500 ft 320° 320° 5 kt METAR EHLW 261755Z AUTO 32005KT 300V360 9999 -DZ FEW015CB SCT069 BKN095 11/09 Q0994 BLU
19:31
M
11 °C 10 km+ 2.600 ft 320° 320° 10 kt METAR EHLW 261731Z AUTO 32010KT 280V360 9999 -RA FEW009 FEW015CB BKN026 BKN030 11/10 Q0994 BLU
19:25
M
11 °C 7 km 2.400 ft 310° 310° 10 kt METAR EHLW 261725Z AUTO 31010KT 270V010 7000 -SHRA FEW015CB SCT020 BKN024 11/10 Q0994 RERA WHT
19:20
V
12 °C 10 km+ 7.300 ft 280° 280° 8 - 18 kt METAR EHLW 261720Z AUTO 28008G18KT 260V010 9999 RA FEW015CB SCT021 OVC073 12/10 Q0994 WHT
18:55
V
13 °C 10 km+ 8.600 ft 280° 280° 7 kt METAR EHLW 261655Z AUTO 28007KT 9999 FEW021 SCT031 OVC086 13/09 Q0994 BLU
18:40
V
13 °C 10 km+ 8.100 ft 290° 290° 7 kt METAR EHLW 261640Z AUTO 29007KT 9999 FEW015CB SCT022 BKN081 13/10 Q0994 WHT
18:25
V
13 °C 10 km+ 6.800 ft 290° 290° 8 kt METAR EHLW 261625Z AUTO 29008KT 260V320 9999 SCT062 BKN068 BKN220 13/10 Q0993 BLU
17:55
V
14 °C 10 km+ 8.100 ft 300° 300° 6 kt METAR EHLW 261555Z AUTO 30006KT 260V330 9999 BKN081 BKN240 14/11 Q0993 BLU
17:26
V
13 °C 10 km+ 22.000 ft 320° 320° 10 kt METAR EHLW 261526Z AUTO 32010KT 290V360 9999 FEW025 SCT082 OVC220 13/11 Q0993 BLU
17:25
V
13 °C 10 km+ 3.200 ft 320° 320° 12 kt METAR EHLW 261525Z AUTO 32012KT 280V010 9999 FEW020 SCT024 BKN032 13/10 Q0993 WHT
17:11
V
14 °C 10 km+ 21.000 ft 310° 310° 14 kt METAR EHLW 261511Z AUTO 31014KT 270V350 9999 FEW015 SCT023 OVC210 14/11 Q0993 WHT
16:55
V
14 °C 10 km+ 23.000 ft 300° 300° 10 kt METAR EHLW 261455Z AUTO 30010KT 270V330 9999 FEW016 OVC230 14/10 Q0994 BLU
16:42
V
13 °C 10 km+ 24.000 ft 280° 280° 8 kt METAR EHLW 261442Z AUTO 28008KT 240V310 9999 FEW015CB OVC240 13/10 Q0994 BLU
16:29
V
14 °C 10 km+ 26.000 ft 280° 280° 10 kt METAR EHLW 261429Z AUTO 28010KT 240V310 9999 FEW014 SCT040 BKN260 14/10 Q0994 BLU
16:18
M
13 °C 7 km 2.300 ft 290° 290° 11 kt METAR EHLW 261418Z AUTO 29011KT 220V330 7000 -RA FEW016 SCT020 BKN023 13/11 Q0994 WHT
16:16
I
13 °C 3,3 km 2.000 ft 300° 300° 13 kt METAR EHLW 261416Z AUTO 30013KT 210V330 3300 -RA FEW016 BKN020 BKN024 13/11 Q0994 YLO
16:13
V
15 °C 10 km+ 23.000 ft 250° 250° 12 - 23 kt METAR EHLW 261413Z AUTO 25012G23KT 210V280 9999 FEW019 SCT024 OVC230 15/11 Q0994 WHT
15:57
V
15 °C 10 km+ 3.500 ft 240° 240° 11 kt METAR EHLW 261357Z AUTO 24011KT 200V270 9999 -RA FEW017 SCT021 BKN035 15/11 Q0994 WHT BECMG 30008KT TEMPO 4500 SHRA SCT015 SCT020CB
15:55
V
15 °C 10 km+ 3.300 ft 240° 240° 11 kt METAR EHLW 261355Z AUTO 24011KT 190V260 9999 FEW017 SCT029 BKN033 15/11 Q0994 BLU BECMG 30008KT TEMPO 4500 SHRA SCT015 SCT020CB
15:34
V
15 °C 10 km+ 7.200 ft 240° 240° 10 kt METAR EHLW 261334Z AUTO 24010KT 200V270 9999 FEW016 SCT067 BKN072 15/11 Q0994 BLU BECMG 30008KT
15:25
V
15 °C 10 km+ 3.600 ft 240° 240° 11 kt METAR EHLW 261325Z AUTO 24011KT 210V270 9999 SCT025 BKN036 BKN043 15/11 Q0994 BLU BECMG 30008KT TEMPO 31010G20KT 4500 SHRA SCT015CB BKN020
15:09
V
14 °C 10 km+ 5.100 ft 240° 240° 12 kt METAR EHLW 261309Z AUTO 24012KT 200V260 9999 BKN051 OVC056 14/12 Q0994 BLU BECMG 30008KT TEMPO 31010G20KT 4500 SHRA SCT015CB BKN020
14:55
M
14 °C 10 km+ 2.600 ft 250° 250° 11 kt METAR EHLW 261255Z AUTO 25011KT 9999 FEW016 SCT023 BKN026 14/11 Q0994 WHT BECMG 30008KT TEMPO 31010G20KT 4500 SHRA SCT015CB BKN020
14:46
M
13 °C 10 km+ 2.500 ft 250° 250° 12 kt METAR EHLW 261246Z AUTO 25012KT 210V270 9999 -SHRA FEW014 FEW015CB SCT017 BKN025 13/11 Q0994 WHT BECMG 30008KT TEMPO 31010G20KT 4500 SHRA SCT015CB BKN020
14:44
M
13 °C 10 km+ 2.600 ft 250° 250° 13 kt METAR EHLW 261244Z AUTO 25013KT 210V270 9999 -SHRA FEW014 FEW015CB SCT020 BKN026 13/11 Q0994 WHT TEMPO 4500 SHRA SCT015CB BKN020 BECMG 30008KT
14:41
M
14 °C 5 km 2.100 ft 250° 250° 13 kt METAR EHLW 261241Z AUTO 25013KT 200V270 5000 RA FEW011 SCT014 FEW015CB BKN021 14/12 Q0994 GRN TEMPO 4500 SHRA SCT007 SCT015CB BKN020 BECMG 30008KT
14:25
M
14 °C 6 km 1.000 ft 220° 220° 13 kt METAR EHLW 261225Z AUTO 22013KT 6000 -RA FEW007 BKN010 BKN013 FEW015CB 14/12 Q0994 GRN TEMPO 4500 SHRA SCT007 SCT015CB BKN020 BECMG 30008KT
13:55
M
14 °C 10 km+ 1.000 ft 190° 190° 13 kt METAR EHLW 261155Z AUTO 19013KT 150V220 9999 FEW007 BKN010 BKN014 14/12 Q0994 GRN TEMPO 2500 RADZ SCT004 BKN006 OVC008
13:42
M
13 °C 10 km+ 1.200 ft 200° 200° 13 kt METAR EHLW 261142Z AUTO 20013KT 150V230 9999 FEW006 SCT010 BKN012 13/12 Q0994 GRN TEMPO 2500 RADZ SCT004 BKN006 OVC008
13:35
I
13 °C 10 km+ 700 ft 200° 200° 12 kt METAR EHLW 261135Z AUTO 20012KT 160V230 9999 FEW005 BKN007 BKN012 FEW015CB 13/12 Q0995 GRN TEMPO 2500 RADZ SCT004 BKN006 OVC008
13:25
I
12 °C 10 km+ 600 ft 200° 200° 14 kt METAR EHLW 261125Z AUTO 20014KT 160V240 9999 FEW005 BKN006 BKN007 FEW015CB 12/12 Q0995 REDZ YLO TEMPO 2500 RADZ SCT004 BKN006 OVC008
13:16
I
13 °C 10 km+ 600 ft 200° 200° 14 kt METAR EHLW 261116Z AUTO 20014KT 160V230 9999 FEW004 BKN006 BKN007 FEW015CB 13/12 Q0995 YLO TEMPO 2500 RADZ SCT004 OVC008
13:08
I
12 °C 9 km 500 ft 200° 200° 13 kt METAR EHLW 261108Z AUTO 20013KT 150V230 9000 BR SCT004 BKN005 OVC007 12/12 Q0995 YLO TEMPO 2500 RADZ SCT005 BKN008 OVC010
12:59
I
12 °C 3,6 km 500 ft 200° 200° 13 kt METAR EHLW 261059Z AUTO 20013KT 160V230 3600 R23/P3000N +DZRA SCT004 BKN005 OVC007 12/11 Q0995 YLO TEMPO 2500 RADZ SCT005 BKN008 OVC010
12:55
I
12 °C 3,5 km 500 ft 200° 200° 14 kt METAR EHLW 261055Z AUTO 20014KT 160V230 3500 R23/P3000N -RA SCT004 BKN005 OVC007 12/11 Q0995 YLO TEMPO 2500 RADZ SCT005 BKN008 OVC010
12:41
I
12 °C 7 km 500 ft 200° 200° 14 kt METAR EHLW 261041Z AUTO 20014KT 150V230 7000 -RA SCT004 BKN005 OVC007 12/11 Q0995 YLO TEMPO 2500 RADZ SCT005 BKN008 OVC010
12:25
I
12 °C 2,8 km 600 ft 200° 200° 14 kt METAR EHLW 261025Z AUTO 20014KT 140V240 2800 R23/P3000U -RA FEW004 BKN006 BKN007 12/11 Q0995 RERA REDZ YLO TEMPO 2500 RADZ SCT005 BKN008 OVC010
12:12
I
11 °C 4,3 km 500 ft 200° 200° 14 kt METAR EHLW 261012Z AUTO 20014KT 150V220 4300 -RA SCT004 BKN005 OVC006 11/11 Q0995 YLO TEMPO 2500 RADZ SCT005 BKN008 OVC010
12:04
I
12 °C 3,3 km 600 ft 200° 200° 15 kt METAR EHLW 261004Z AUTO 20015KT 160V230 3300 R23/P3000N +DZ FEW004 BKN006 BKN007 12/11 Q0995 YLO TEMPO 2500 RADZ SCT005 BKN008 OVC010
11:56
I
12 °C 6 km 700 ft 200° 200° 15 kt METAR EHLW 260956Z AUTO 20015KT 160V230 6000 DZ FEW005 SCT006 BKN007 12/11 Q0995 YLO TEMPO 2500 SHRA SCT007 BKN010 SCT015CB
11:55
I
12 °C 7 km 700 ft 200° 200° 14 kt METAR EHLW 260955Z AUTO 20014KT 160V230 7000 -DZ FEW005 BKN007 BKN008 12/11 Q0995 REDZ GRN TEMPO 2500 SHRA SCT007 BKN010 SCT015CB
11:42
I
12 °C 6 km 700 ft 200° 200° 14 - 24 kt METAR EHLW 260942Z AUTO 20014G24KT 150V230 6000 -DZ FEW005 BKN007 BKN008 12/11 Q0996 GRN TEMPO 2500 SHRA SCT007 BKN010 SCT015CB
11:37
I
12 °C 5 km 700 ft 200° 200° 14 - 24 kt METAR EHLW 260937Z AUTO 20014G24KT 160V230 5000 -DZ SCT006 BKN007 BKN009 12/11 Q0996 YLO TEMPO 2500 SHRA SCT007 BKN010 SCT015CB
11:25
I
12 °C 9 km 700 ft 200° 200° 15 kt METAR EHLW 260925Z AUTO 20015KT 160V230 9000 DZ SCT006/// BKN007/// BKN008/// 12/11 Q0996 YLO TEMPO 2500 SHRA SCT007 BKN010 SCT015CB
11:14
I
12 °C 9 km 700 ft 210° 210° 15 kt METAR EHLW 260914Z AUTO 21015KT 150V240 9000 -RADZ SCT006 BKN007 OVC009 12/11 Q0996 YLO TEMPO 2500 SHRA SCT007 BKN010 SCT015CB
11:01
I
12 °C 6 km 800 ft 210° 210° 16 kt METAR EHLW 260901Z AUTO 21016KT 170V240 6000 -RA SCT006 BKN008 BKN010 12/10 Q0996 YLO TEMPO 2500 SHRA SCT007 BKN010 SCT015CB
10:55
I
12 °C 4 km 1.100 ft 210° 210° 17 kt METAR EHLW 260855Z AUTO 21017KT 170V230 4000 -RA FEW007 SCT009 BKN011 12/10 Q0996 RERA REDZ GRN BECMG 4000 RA SCT010 BKN015
10:42
I
12 °C 3,7 km 1.600 ft 210° 210° 17 - 27 kt METAR EHLW 260842Z AUTO 21017G27KT 160V230 3700 +DZRA FEW010 SCT013 BKN016 12/10 Q0996 GRN BECMG 4000 RA SCT010 BKN015
10:39
M
12 °C 6 km 2.400 ft 210° 210° 14 kt METAR EHLW 260839Z AUTO 21014KT 160V230 6000 DZ SCT014 SCT017 BKN024 12/10 Q0996 GRN BECMG 4000 RA SCT010 BKN015
10:29
M
12 °C 7 km 4.800 ft 210° 210° 15 kt METAR EHLW 260829Z AUTO 21015KT 160V230 7000 DZ SCT015CB SCT034 BKN048 12/10 Q0996 WHT BECMG 4000 RA SCT010 BKN015
10:25
V
13 °C 10 km+ 4.800 ft 200° 200° 16 kt METAR EHLW 260825Z AUTO 20016KT 160V250 9999 -RADZ FEW015CB SCT043 BKN048 13/10 Q0996 BLU BECMG 4000 RA SCT010 BKN015
09:55
V
12 °C 10 km+ 7.100 ft 200° 200° 17 kt METAR EHLW 260755Z AUTO 20017KT 160V240 9999 SCT066 OVC071 12/09 Q0996 BLU BECMG 4000 RA SCT010 BKN015
09:25
V
12 °C 10 km+ 4.000 ft 200° 200° 15 kt METAR EHLW 260725Z AUTO 20015KT 160V230 9999 BKN040 OVC044 12/09 Q0997 BLU BECMG SCT010 BKN015
08:55
V
12 °C 10 km+ 4.800 ft 200° 200° 15 kt METAR EHLW 260655Z AUTO 20015KT 160V230 9999 FEW043 OVC048 12/09 Q0997 BLU TEMPO 20015G25KT
08:26
V
12 °C 10 km+ 3.700 ft 200° 200° 12 kt METAR EHLW 260626Z AUTO 20012KT 140V230 9999 FEW025 SCT032 BKN037 12/09 Q0998 BLU TEMPO 20015G25KT
08:25
V
12 °C 10 km+ 3.200 ft 200° 200° 11 kt METAR EHLW 260625Z AUTO 20011KT 140V230 9999 SCT024 BKN032 OVC037 12/10 Q0998 WHT TEMPO 20015G25KT
08:13
V
12 °C 10 km+ 3.200 ft 210° 210° 13 kt METAR EHLW 260613Z AUTO 21013KT 160V230 9999 SCT024 OVC032 12/10 Q0998 WHT TEMPO 20015G25KT
08:06
V
12 °C 10 km+ 3.200 ft 200° 200° 14 kt METAR EHLW 260606Z AUTO 20014KT 160V230 9999 FEW015CB BKN032 OVC036 12/10 Q0998 BLU TEMPO 20015G25KT
07:56
V
12 °C 10 km+ 3.400 ft 200° 200° 14 kt METAR EHLW 260556Z AUTO 20014KT 160V230 9999 -DZ FEW015CB OVC034 12/10 Q0998 BLU TEMPO 20015G25KT
07:55
V
12 °C 10 km+ 3.300 ft 200° 200° 14 kt METAR EHLW 260555Z AUTO 20014KT 160V230 9999 DZ FEW015CB SCT024 OVC033 12/10 Q0998 WHT TEMPO 20015G25KT
07:35
V
12 °C 10 km+ 3.200 ft 200° 200° 13 kt METAR EHLW 260535Z AUTO 20013KT 160V230 9999 FEW015CB SCT021 BKN032 12/10 Q0999 WHT TEMPO 20015G25KT
07:26
M
12 °C 10 km+ 2.600 ft 200° 200° 13 kt METAR EHLW 260526Z AUTO 20013KT 160V230 9999 -RA FEW015CB BKN026 OVC029 12/10 Q0999 BLU TEMPO 20015G25KT
07:25
M
12 °C 10 km+ 2.900 ft 200° 200° 12 kt METAR EHLW 260525Z AUTO 20012KT 160V230 9999 -RA FEW015CB SCT025 OVC029 12/10 Q0999 RERA REDZ BLU
07:08
M
12 °C 10 km+ 2.800 ft 200° 200° 12 kt METAR EHLW 260508Z AUTO 20012KT 160V220 9999 -RA FEW015CB BKN028 OVC031 12/10 Q0999 BLU
06:56
V
12 °C 10 km+ 3.700 ft 200° 200° 13 kt METAR EHLW 260456Z AUTO 20013KT 160V230 9999 DZRA FEW015CB SCT028 BKN037 12/10 Q0999 BLU
06:55
V
12 °C 10 km+ 4.000 ft 200° 200° 12 kt METAR EHLW 260455Z AUTO 20012KT 160V230 9999 DZ FEW015CB SCT036 BKN040 12/10 Q0999 BLU
06:39
V
12 °C 10 km+ 3.100 ft 200° 200° 12 kt METAR EHLW 260439Z AUTO 20012KT 150V240 9999 -DZ FEW015CB BKN031 OVC044 12/10 Q1000 BLU
06:27
V
12 °C 10 km+ 3.300 ft 200° 200° 12 kt METAR EHLW 260427Z AUTO 20012KT 160V220 9999 DZRA FEW015CB BKN033 BKN045 OVC050 12/10 Q1000 BLU
06:25
V
12 °C 10 km+ 4.900 ft 200° 200° 12 kt METAR EHLW 260425Z AUTO 20012KT 160V230 9999 -RA FEW015CB SCT034 OVC049 12/10 Q1000 RERA REDZ BLU
06:19
V
12 °C 10 km+ 5.000 ft 200° 200° 12 kt METAR EHLW 260419Z AUTO 20012KT 170V230 9999 -RA FEW015CB SCT045 OVC050 12/10 Q1000 BLU
06:10
V
12 °C 10 km+ 5.100 ft 200° 200° 11 kt METAR EHLW 260410Z AUTO 20011KT 160V230 9999 DZRA OVC051 12/10 Q1000 BLU
05:55
V
12 °C 10 km+ 6.300 ft 200° 200° 11 kt METAR EHLW 260355Z AUTO 20011KT 150V230 9999 -RA FEW015CB SCT056 BKN063 BKN071 12/10 Q1001 BLU
05:25
V
12 °C 10 km+ 5.700 ft 200° 200° 10 kt METAR EHLW 260325Z AUTO 20010KT 160V230 9999 FEW015CB BKN057 BKN062 12/10 Q1001 BLU
04:55
V
12 °C 10 km+ 5.300 ft 200° 200° 10 kt METAR EHLW 260255Z AUTO 20010KT 170V230 9999 -DZ FEW015CB BKN053 12/10 Q1002 BLU
04:38
V
12 °C 10 km+ 5.200 ft 200° 200° 9 kt METAR EHLW 260238Z AUTO 20009KT 170V230 9999 DZRA BKN052 BKN064 OVC073 12/10 Q1002 BLU
04:25
V
12 °C 10 km+ 5.900 ft 200° 200° 8 kt METAR EHLW 260225Z AUTO 20008KT 160V240 9999 FEW015CB BKN059 BKN070 OVC075 12/10 Q1003 BLU
04:09
V
12 °C 10 km+ 4.800 ft 200° 200° 10 kt METAR EHLW 260209Z AUTO 20010KT 160V230 9999 -RADZ FEW015CB BKN048 BKN053 BKN059 12/09 Q1003 BLU
04:00
V
12 °C 10 km+ 5.000 ft 210° 210° 9 kt METAR EHLW 260200Z AUTO 21009KT 170V230 9999 -SHRA FEW015CB SCT029 BKN050 12/09 Q1003 BLU
03:55
V
12 °C 10 km+ 4.100 ft 210° 210° 10 kt METAR EHLW 260155Z AUTO 21010KT 170V230 9999 -RA FEW015CB SCT026 BKN041 12/09 Q1004 RERA REDZ BLU
03:44
V
12 °C 10 km+ 5.800 ft 210° 210° 9 kt METAR EHLW 260144Z AUTO 21009KT 170V240 9999 -SHRA FEW015CB SCT047 OVC058 12/09 Q1004 BLU
03:25
V
12 °C 10 km+ 4.700 ft 200° 200° 8 kt METAR EHLW 260125Z AUTO 20008KT 170V230 9999 DZ BKN047 BKN053 OVC064 12/09 Q1004 BLU
03:04
V
12 °C 10 km+ 6.300 ft 210° 210° 10 kt METAR EHLW 260104Z AUTO 21010KT 180V240 9999 DZ FEW015CB SCT053 BKN063 12/09 Q1004 BLU
02:55
V
12 °C 10 km+ 6.100 ft 210° 210° 10 kt METAR EHLW 260055Z AUTO 21010KT 170V240 9999 DZRA SCT052 BKN061 OVC070 12/09 Q1005 BLU
02:25
V
12 °C 10 km+ 5.700 ft 200° 200° 9 kt METAR EHLW 260025Z AUTO 20009KT 160V230 9999 FEW036 BKN057 OVC070 12/09 Q1005 BLU
01:55
V
12 °C 10 km+ 5.700 ft 200° 200° 9 kt METAR EHLW 252355Z AUTO 20009KT 160V220 9999 -DZ FEW051 BKN057 OVC070 12/10 Q1006 BLU
01:36
V
12 °C 10 km+ 5.100 ft 200° 200° 8 kt METAR EHLW 252336Z AUTO 20008KT 9999 -DZRA OVC051 12/10 Q1006 BLU
01:25
V
11 °C 10 km+ 5.300 ft 200° 200° 7 kt METAR EHLW 252325Z AUTO 20007KT 160V230 9999 OVC053 11/10 Q1007 BLU
00:55
V
11 °C 10 km+ 5.700 ft 190° 190° 7 kt METAR EHLW 252255Z AUTO 19007KT 9999 OVC057 11/10 Q1007 BLU
00:25
V
11 °C 10 km+ 10.000 ft 200° 200° 6 kt METAR EHLW 252225Z AUTO 20006KT 9999 OVC100 11/09 Q1008 BLU

25 września 2022

Czas Kod Pogoda Temp. Widoczność Sufit Wiatr METAR/SPECI
23:55
V
11 °C 10 km+ 14.000 ft 220° 220° 8 kt METAR EHLW 252155Z AUTO 22008KT 9999 OVC140 11/09 Q1008 BLU
23:25
V
12 °C 10 km+ 6.300 ft 220° 220° 7 kt METAR EHLW 252125Z AUTO 22007KT 9999 FEW030 BKN063 12/09 Q1009 BLU
22:55
V
11 °C 10 km+ 6.100 ft 210° 210° 6 kt METAR EHLW 252055Z AUTO 21006KT 9999 SCT040 OVC061 11/09 Q1009 BLU
22:25
V
11 °C 10 km+ 5.600 ft 210° 210° 6 kt METAR EHLW 252025Z AUTO 21006KT 9999 FEW044 SCT049 OVC056 11/09 Q1010 BLU
21:55
V
11 °C 10 km+ 5.700 ft 210° 210° 4 kt METAR EHLW 251955Z AUTO 21004KT 9999 OVC057 11/09 Q1010 BLU
21:25
V
11 °C 10 km+ 6.000 ft 190° 190° 5 kt METAR EHLW 251925Z AUTO 19005KT 160V220 9999 OVC060 11/09 Q1010 BLU
20:55
V
11 °C 10 km+ 4.900 ft 250° 250° 3 kt METAR EHLW 251855Z AUTO 25003KT 210V280 9999 DZ SCT027 BKN049 OVC053 11/09 Q1011 BLU
20:25
V
11 °C 10 km+ 21.000 ft 200° 200° 5 kt METAR EHLW 251825Z AUTO 20005KT 9999 OVC210 11/08 Q1011 BLU
19:55
V
11 °C 10 km+ 22.000 ft 220° 220° 4 kt METAR EHLW 251755Z AUTO 22004KT 9999 FEW068 OVC220 11/08 Q1011 BLU
19:25
V
12 °C 10 km+ 24.000 ft 260° 260° 6 kt METAR EHLW 251725Z AUTO 26006KT 9999 FEW054 OVC240 12/08 Q1012 BLU
18:55
V
13 °C 10 km+ 38.000 ft 260° 260° 5 kt METAR EHLW 251655Z AUTO 26005KT 9999 SCT250 OVC380 13/08 Q1012 BLU
18:25
V
14 °C 10 km+ 26.000 ft 270° 270° 5 kt METAR EHLW 251625Z AUTO 27005KT 9999 FEW063 BKN260 OVC360 14/08 Q1012 BLU
17:55
V
14 °C 10 km+ 5.300 ft 290° 290° 7 kt METAR EHLW 251555Z AUTO 29007KT 9999 BKN053 OVC058 14/09 Q1012 BLU
17:25
V
14 °C 10 km+ 5.100 ft 300° 300° 6 kt METAR EHLW 251525Z AUTO 30006KT 260V320 9999 BKN051 OVC060 14/08 Q1013 BLU
16:55
V
15 °C 10 km+ 5.600 ft 300° 300° 6 kt METAR EHLW 251455Z AUTO 30006KT 260V330 9999 BKN056 OVC062 15/08 Q1013 BLU
Starsze dane

My i osoby trzecie śledzimy twoje zachowanie w internecie na naszej stronie za pomocą plików cookie. Jeśli kontynuujesz, zakładamy, że zgadzasz się z naszą polityką plików cookie. Dowiedz się więcej